sensor_id;sensor_type;location;lat;lon;timestamp;temperature;humidity
34877;DHT22;21086;44.780;17.194;2023-06-22T00:00:22;24.50;1.00
34877;DHT22;21086;44.780;17.194;2023-06-22T00:02:49;24.40;1.00
34877;DHT22;21086;44.780;17.194;2023-06-22T00:05:16;24.40;1.00
34877;DHT22;21086;44.780;17.194;2023-06-22T00:07:43;24.30;1.00
34877;DHT22;21086;44.780;17.194;2023-06-22T00:10:10;24.10;1.00
34877;DHT22;21086;44.780;17.194;2023-06-22T00:12:38;24.30;1.00
34877;DHT22;21086;44.780;17.194;2023-06-22T00:15:05;24.50;1.00
34877;DHT22;21086;44.780;17.194;2023-06-22T00:17:32;24.60;1.00
34877;DHT22;21086;44.780;17.194;2023-06-22T00:19:59;24.60;1.00
34877;DHT22;21086;44.780;17.194;2023-06-22T00:22:26;24.60;1.00
34877;DHT22;21086;44.780;17.194;2023-06-22T00:24:57;24.40;1.00
34877;DHT22;21086;44.780;17.194;2023-06-22T00:27:24;24.30;1.00
34877;DHT22;21086;44.780;17.194;2023-06-22T00:29:51;24.30;1.00
34877;DHT22;21086;44.780;17.194;2023-06-22T00:32:18;24.20;1.00
34877;DHT22;21086;44.780;17.194;2023-06-22T00:34:45;24.20;1.00
34877;DHT22;21086;44.780;17.194;2023-06-22T00:37:12;24.10;1.00
34877;DHT22;21086;44.780;17.194;2023-06-22T00:39:39;24.30;1.00
34877;DHT22;21086;44.780;17.194;2023-06-22T00:42:08;24.40;1.00
34877;DHT22;21086;44.780;17.194;2023-06-22T00:44:36;24.70;1.00
34877;DHT22;21086;44.780;17.194;2023-06-22T00:47:03;24.80;1.00
34877;DHT22;21086;44.780;17.194;2023-06-22T00:49:31;24.80;1.00
34877;DHT22;21086;44.780;17.194;2023-06-22T00:51:58;24.80;1.00
34877;DHT22;21086;44.780;17.194;2023-06-22T00:54:25;25.10;1.00
34877;DHT22;21086;44.780;17.194;2023-06-22T00:56:56;24.90;1.00
34877;DHT22;21086;44.780;17.194;2023-06-22T00:59:26;24.90;1.00
34877;DHT22;21086;44.780;17.194;2023-06-22T01:01:53;24.80;1.00
34877;DHT22;21086;44.780;17.194;2023-06-22T01:04:26;24.90;1.00
34877;DHT22;21086;44.780;17.194;2023-06-22T01:10:16;24.90;1.00
34877;DHT22;21086;44.780;17.194;2023-06-22T01:12:49;24.90;1.00
34877;DHT22;21086;44.780;17.194;2023-06-22T01:15:25;25.00;1.00
34877;DHT22;21086;44.780;17.194;2023-06-22T01:17:56;24.90;1.00
34877;DHT22;21086;44.780;17.194;2023-06-22T01:20:25;24.80;1.00
34877;DHT22;21086;44.780;17.194;2023-06-22T01:28:52;24.80;1.00
34877;DHT22;21086;44.780;17.194;2023-06-22T01:31:23;24.80;1.00
34877;DHT22;21086;44.780;17.194;2023-06-22T01:33:53;24.90;1.00
34877;DHT22;21086;44.780;17.194;2023-06-22T01:36:22;24.90;1.00
34877;DHT22;21086;44.780;17.194;2023-06-22T01:38:52;25.10;1.00
34877;DHT22;21086;44.780;17.194;2023-06-22T01:41:20;25.00;1.00
34877;DHT22;21086;44.780;17.194;2023-06-22T01:43:48;25.00;1.00
34877;DHT22;21086;44.780;17.194;2023-06-22T01:46:16;24.90;1.00
34877;DHT22;21086;44.780;17.194;2023-06-22T01:48:46;24.90;1.00
34877;DHT22;21086;44.780;17.194;2023-06-22T01:51:14;25.00;1.00
34877;DHT22;21086;44.780;17.194;2023-06-22T01:53:42;25.00;1.00
34877;DHT22;21086;44.780;17.194;2023-06-22T01:56:09;24.90;1.00
34877;DHT22;21086;44.780;17.194;2023-06-22T01:58:40;24.80;1.00
34877;DHT22;21086;44.780;17.194;2023-06-22T02:01:11;24.70;1.00
34877;DHT22;21086;44.780;17.194;2023-06-22T02:03:47;24.70;1.00
34877;DHT22;21086;44.780;17.194;2023-06-22T02:06:19;24.60;1.00
34877;DHT22;21086;44.780;17.194;2023-06-22T02:08:51;24.60;1.00
34877;DHT22;21086;44.780;17.194;2023-06-22T02:11:21;24.60;1.00
34877;DHT22;21086;44.780;17.194;2023-06-22T02:13:49;24.60;1.00
34877;DHT22;21086;44.780;17.194;2023-06-22T02:16:18;24.60;1.00
34877;DHT22;21086;44.780;17.194;2023-06-22T02:18:47;24.60;1.00
34877;DHT22;21086;44.780;17.194;2023-06-22T02:21:14;24.60;1.00
34877;DHT22;21086;44.780;17.194;2023-06-22T02:23:41;24.30;1.00
34877;DHT22;21086;44.780;17.194;2023-06-22T02:26:08;24.30;1.00
34877;DHT22;21086;44.780;17.194;2023-06-22T02:28:35;24.20;1.00
34877;DHT22;21086;44.780;17.194;2023-06-22T02:31:02;24.20;1.00
34877;DHT22;21086;44.780;17.194;2023-06-22T02:33:29;24.10;1.00
34877;DHT22;21086;44.780;17.194;2023-06-22T02:35:57;24.10;1.00
34877;DHT22;21086;44.780;17.194;2023-06-22T02:38:24;24.00;1.00
34877;DHT22;21086;44.780;17.194;2023-06-22T02:40:51;24.00;1.00
34877;DHT22;21086;44.780;17.194;2023-06-22T02:43:18;23.90;1.00
34877;DHT22;21086;44.780;17.194;2023-06-22T02:45:45;23.90;1.00
34877;DHT22;21086;44.780;17.194;2023-06-22T02:48:12;23.90;1.00
34877;DHT22;21086;44.780;17.194;2023-06-22T02:50:39;24.00;1.00
34877;DHT22;21086;44.780;17.194;2023-06-22T02:53:06;24.10;1.00
34877;DHT22;21086;44.780;17.194;2023-06-22T02:55:33;24.10;1.00
34877;DHT22;21086;44.780;17.194;2023-06-22T02:58:00;24.00;1.00
34877;DHT22;21086;44.780;17.194;2023-06-22T03:00:32;24.00;1.00
34877;DHT22;21086;44.780;17.194;2023-06-22T03:02:59;24.10;1.00
34877;DHT22;21086;44.780;17.194;2023-06-22T03:05:27;24.00;1.00
34877;DHT22;21086;44.780;17.194;2023-06-22T03:07:54;23.90;1.00
34877;DHT22;21086;44.780;17.194;2023-06-22T03:10:21;23.90;1.00
34877;DHT22;21086;44.780;17.194;2023-06-22T03:12:50;23.90;1.00
34877;DHT22;21086;44.780;17.194;2023-06-22T03:15:17;23.90;1.00
34877;DHT22;21086;44.780;17.194;2023-06-22T03:17:45;23.90;1.00
34877;DHT22;21086;44.780;17.194;2023-06-22T03:20:12;24.00;1.00
34877;DHT22;21086;44.780;17.194;2023-06-22T03:22:40;23.90;1.00
34877;DHT22;21086;44.780;17.194;2023-06-22T03:25:09;23.90;1.00
34877;DHT22;21086;44.780;17.194;2023-06-22T03:27:37;23.90;1.00
34877;DHT22;21086;44.780;17.194;2023-06-22T03:30:06;23.90;1.00
34877;DHT22;21086;44.780;17.194;2023-06-22T03:32:34;23.90;1.00
34877;DHT22;21086;44.780;17.194;2023-06-22T03:35:01;23.80;1.00
34877;DHT22;21086;44.780;17.194;2023-06-22T03:37:29;23.70;1.00
34877;DHT22;21086;44.780;17.194;2023-06-22T03:39:56;23.70;1.00
34877;DHT22;21086;44.780;17.194;2023-06-22T03:42:23;23.70;1.00
34877;DHT22;21086;44.780;17.194;2023-06-22T03:44:50;23.80;1.00
34877;DHT22;21086;44.780;17.194;2023-06-22T03:47:18;23.90;1.00
34877;DHT22;21086;44.780;17.194;2023-06-22T03:49:45;23.90;1.00
34877;DHT22;21086;44.780;17.194;2023-06-22T03:52:12;23.80;1.00
34877;DHT22;21086;44.780;17.194;2023-06-22T03:54:39;23.90;1.00
34877;DHT22;21086;44.780;17.194;2023-06-22T03:57:06;24.60;1.00
34877;DHT22;21086;44.780;17.194;2023-06-22T03:59:33;24.40;1.00
34877;DHT22;21086;44.780;17.194;2023-06-22T04:02:00;24.50;1.00
34877;DHT22;21086;44.780;17.194;2023-06-22T04:04:27;24.60;1.00
34877;DHT22;21086;44.780;17.194;2023-06-22T04:06:55;24.40;1.00
34877;DHT22;21086;44.780;17.194;2023-06-22T04:09:23;24.30;1.00
34877;DHT22;21086;44.780;17.194;2023-06-22T04:11:50;24.30;1.00
34877;DHT22;21086;44.780;17.194;2023-06-22T04:14:17;24.40;1.00
34877;DHT22;21086;44.780;17.194;2023-06-22T04:16:45;24.50;1.00
34877;DHT22;21086;44.780;17.194;2023-06-22T04:19:11;24.50;1.00
34877;DHT22;21086;44.780;17.194;2023-06-22T04:21:44;24.60;1.00
34877;DHT22;21086;44.780;17.194;2023-06-22T04:24:15;24.60;1.00
34877;DHT22;21086;44.780;17.194;2023-06-22T04:26:43;24.80;1.00
34877;DHT22;21086;44.780;17.194;2023-06-22T04:29:12;24.70;1.00
34877;DHT22;21086;44.780;17.194;2023-06-22T04:31:40;24.60;1.00
34877;DHT22;21086;44.780;17.194;2023-06-22T04:34:09;24.60;1.00
34877;DHT22;21086;44.780;17.194;2023-06-22T04:36:40;24.60;1.00
34877;DHT22;21086;44.780;17.194;2023-06-22T04:39:09;24.60;1.00
34877;DHT22;21086;44.780;17.194;2023-06-22T04:41:40;24.80;1.00
34877;DHT22;21086;44.780;17.194;2023-06-22T04:44:10;24.90;1.00
34877;DHT22;21086;44.780;17.194;2023-06-22T04:46:39;25.00;1.00
34877;DHT22;21086;44.780;17.194;2023-06-22T04:49:09;25.10;1.00
34877;DHT22;21086;44.780;17.194;2023-06-22T04:51:41;25.20;1.00
34877;DHT22;21086;44.780;17.194;2023-06-22T04:54:09;25.30;1.00
34877;DHT22;21086;44.780;17.194;2023-06-22T04:56:37;25.50;1.00
34877;DHT22;21086;44.780;17.194;2023-06-22T04:59:04;25.60;1.00
34877;DHT22;21086;44.780;17.194;2023-06-22T05:01:31;25.70;1.00
34877;DHT22;21086;44.780;17.194;2023-06-22T05:03:58;25.80;1.00
34877;DHT22;21086;44.780;17.194;2023-06-22T05:06:28;25.90;1.00
34877;DHT22;21086;44.780;17.194;2023-06-22T05:08:56;25.80;1.00
34877;DHT22;21086;44.780;17.194;2023-06-22T05:11:27;25.90;1.00
34877;DHT22;21086;44.780;17.194;2023-06-22T05:13:56;26.00;1.00
34877;DHT22;21086;44.780;17.194;2023-06-22T05:16:24;26.20;1.00
34877;DHT22;21086;44.780;17.194;2023-06-22T05:18:52;26.20;1.00
34877;DHT22;21086;44.780;17.194;2023-06-22T05:21:25;26.10;1.00
34877;DHT22;21086;44.780;17.194;2023-06-22T05:23:56;25.90;1.00
34877;DHT22;21086;44.780;17.194;2023-06-22T05:26:27;25.90;1.00
34877;DHT22;21086;44.780;17.194;2023-06-22T05:28:54;26.00;1.00
34877;DHT22;21086;44.780;17.194;2023-06-22T05:31:21;26.00;1.00
34877;DHT22;21086;44.780;17.194;2023-06-22T05:33:51;26.10;1.00
34877;DHT22;21086;44.780;17.194;2023-06-22T05:36:18;26.10;1.00
34877;DHT22;21086;44.780;17.194;2023-06-22T05:38:56;26.10;1.00
34877;DHT22;21086;44.780;17.194;2023-06-22T05:41:24;26.10;1.00
34877;DHT22;21086;44.780;17.194;2023-06-22T05:43:51;26.10;1.00
34877;DHT22;21086;44.780;17.194;2023-06-22T05:46:19;26.10;1.00
34877;DHT22;21086;44.780;17.194;2023-06-22T05:48:46;26.30;1.00
34877;DHT22;21086;44.780;17.194;2023-06-22T05:51:13;26.40;1.00
34877;DHT22;21086;44.780;17.194;2023-06-22T05:53:39;26.50;1.00
34877;DHT22;21086;44.780;17.194;2023-06-22T05:56:06;26.40;1.00
34877;DHT22;21086;44.780;17.194;2023-06-22T05:58:35;26.60;1.00
34877;DHT22;21086;44.780;17.194;2023-06-22T06:01:02;26.60;1.00
34877;DHT22;21086;44.780;17.194;2023-06-22T06:03:29;26.60;1.00
34877;DHT22;21086;44.780;17.194;2023-06-22T06:05:56;26.80;1.00
34877;DHT22;21086;44.780;17.194;2023-06-22T06:08:23;26.80;1.00
34877;DHT22;21086;44.780;17.194;2023-06-22T06:10:50;26.80;1.00
34877;DHT22;21086;44.780;17.194;2023-06-22T06:13:19;26.90;1.00
34877;DHT22;21086;44.780;17.194;2023-06-22T06:15:47;27.00;1.00
34877;DHT22;21086;44.780;17.194;2023-06-22T06:18:14;27.20;1.00
34877;DHT22;21086;44.780;17.194;2023-06-22T06:20:42;27.40;1.00
34877;DHT22;21086;44.780;17.194;2023-06-22T06:23:09;27.50;1.00
34877;DHT22;21086;44.780;17.194;2023-06-22T06:25:35;27.70;1.00
34877;DHT22;21086;44.780;17.194;2023-06-22T06:28:02;27.80;1.00
34877;DHT22;21086;44.780;17.194;2023-06-22T06:30:30;28.00;1.00
34877;DHT22;21086;44.780;17.194;2023-06-22T06:32:57;28.00;1.00
34877;DHT22;21086;44.780;17.194;2023-06-22T06:35:25;28.20;1.00
34877;DHT22;21086;44.780;17.194;2023-06-22T06:37:53;28.40;1.00
34877;DHT22;21086;44.780;17.194;2023-06-22T06:40:20;28.40;1.00
34877;DHT22;21086;44.780;17.194;2023-06-22T06:42:48;28.50;1.00
34877;DHT22;21086;44.780;17.194;2023-06-22T06:45:17;28.60;1.00
34877;DHT22;21086;44.780;17.194;2023-06-22T06:47:46;28.70;1.00
34877;DHT22;21086;44.780;17.194;2023-06-22T06:50:14;28.90;1.00
34877;DHT22;21086;44.780;17.194;2023-06-22T06:52:42;28.70;1.00
34877;DHT22;21086;44.780;17.194;2023-06-22T06:55:09;29.10;1.00
34877;DHT22;21086;44.780;17.194;2023-06-22T06:57:42;29.10;1.00
34877;DHT22;21086;44.780;17.194;2023-06-22T07:00:11;29.10;99.90
34877;DHT22;21086;44.780;17.194;2023-06-22T07:02:45;29.10;99.90
34877;DHT22;21086;44.780;17.194;2023-06-22T07:05:14;29.20;99.90
34877;DHT22;21086;44.780;17.194;2023-06-22T07:07:41;29.20;99.90
34877;DHT22;21086;44.780;17.194;2023-06-22T07:10:10;29.20;99.90
34877;DHT22;21086;44.780;17.194;2023-06-22T07:12:37;29.30;99.90
34877;DHT22;21086;44.780;17.194;2023-06-22T07:15:05;29.40;99.90
34877;DHT22;21086;44.780;17.194;2023-06-22T07:17:35;29.60;99.90
34877;DHT22;21086;44.780;17.194;2023-06-22T07:20:03;29.70;99.90
34877;DHT22;21086;44.780;17.194;2023-06-22T07:22:42;29.80;99.90
34877;DHT22;21086;44.780;17.194;2023-06-22T07:25:10;29.80;99.90
34877;DHT22;21086;44.780;17.194;2023-06-22T07:27:46;29.90;99.90
34877;DHT22;21086;44.780;17.194;2023-06-22T07:30:23;29.90;99.90
34877;DHT22;21086;44.780;17.194;2023-06-22T07:32:50;29.90;99.90
34877;DHT22;21086;44.780;17.194;2023-06-22T07:35:17;29.90;99.90
34877;DHT22;21086;44.780;17.194;2023-06-22T07:37:44;29.90;99.90
34877;DHT22;21086;44.780;17.194;2023-06-22T07:40:12;29.90;99.90
34877;DHT22;21086;44.780;17.194;2023-06-22T07:42:39;30.00;99.90
34877;DHT22;21086;44.780;17.194;2023-06-22T07:45:07;30.10;99.90
34877;DHT22;21086;44.780;17.194;2023-06-22T07:47:35;30.20;99.90
34877;DHT22;21086;44.780;17.194;2023-06-22T07:50:03;30.20;99.90
34877;DHT22;21086;44.780;17.194;2023-06-22T07:52:31;30.10;99.90
34877;DHT22;21086;44.780;17.194;2023-06-22T07:54:58;30.10;99.90
34877;DHT22;21086;44.780;17.194;2023-06-22T07:57:25;30.00;99.90
34877;DHT22;21086;44.780;17.194;2023-06-22T08:00:02;30.00;99.90
34877;DHT22;21086;44.780;17.194;2023-06-22T08:02:50;30.10;99.90
34877;DHT22;21086;44.780;17.194;2023-06-22T08:05:17;30.30;99.90
34877;DHT22;21086;44.780;17.194;2023-06-22T08:07:48;30.40;99.90
34877;DHT22;21086;44.780;17.194;2023-06-22T08:10:16;30.50;99.90
34877;DHT22;21086;44.780;17.194;2023-06-22T08:12:43;30.50;99.90
34877;DHT22;21086;44.780;17.194;2023-06-22T08:15:10;30.60;99.90
34877;DHT22;21086;44.780;17.194;2023-06-22T08:17:38;30.70;99.90
34877;DHT22;21086;44.780;17.194;2023-06-22T08:20:07;30.60;99.90
34877;DHT22;21086;44.780;17.194;2023-06-22T08:22:41;30.60;99.90
34877;DHT22;21086;44.780;17.194;2023-06-22T08:25:09;30.70;99.90
34877;DHT22;21086;44.780;17.194;2023-06-22T08:27:37;30.90;99.90
34877;DHT22;21086;44.780;17.194;2023-06-22T08:30:04;31.10;99.90
34877;DHT22;21086;44.780;17.194;2023-06-22T08:32:31;31.20;99.90
34877;DHT22;21086;44.780;17.194;2023-06-22T08:35:01;31.20;99.90
34877;DHT22;21086;44.780;17.194;2023-06-22T08:37:29;31.30;99.90
34877;DHT22;21086;44.780;17.194;2023-06-22T08:40:04;31.40;99.90
34877;DHT22;21086;44.780;17.194;2023-06-22T08:42:37;31.50;99.90
34877;DHT22;21086;44.780;17.194;2023-06-22T08:45:05;31.80;99.90
34877;DHT22;21086;44.780;17.194;2023-06-22T08:47:32;31.80;99.90
34877;DHT22;21086;44.780;17.194;2023-06-22T08:50:00;32.00;99.90
34877;DHT22;21086;44.780;17.194;2023-06-22T08:52:29;32.10;99.90
34877;DHT22;21086;44.780;17.194;2023-06-22T08:54:56;32.10;99.90
34877;DHT22;21086;44.780;17.194;2023-06-22T08:57:25;32.10;99.90
34877;DHT22;21086;44.780;17.194;2023-06-22T08:59:53;32.20;99.90
34877;DHT22;21086;44.780;17.194;2023-06-22T09:02:20;32.20;99.90
34877;DHT22;21086;44.780;17.194;2023-06-22T09:04:47;32.20;99.90
34877;DHT22;21086;44.780;17.194;2023-06-22T09:07:15;32.40;99.90
34877;DHT22;21086;44.780;17.194;2023-06-22T09:09:49;32.50;99.90
34877;DHT22;21086;44.780;17.194;2023-06-22T09:12:17;32.50;99.90
34877;DHT22;21086;44.780;17.194;2023-06-22T09:14:46;32.60;99.90
34877;DHT22;21086;44.780;17.194;2023-06-22T09:17:13;32.60;99.90
34877;DHT22;21086;44.780;17.194;2023-06-22T09:19:40;32.70;99.90
34877;DHT22;21086;44.780;17.194;2023-06-22T09:22:08;32.60;99.90
34877;DHT22;21086;44.780;17.194;2023-06-22T09:24:34;33.00;99.90
34877;DHT22;21086;44.780;17.194;2023-06-22T09:27:02;32.80;99.90
34877;DHT22;21086;44.780;17.194;2023-06-22T09:29:29;33.00;99.90
34877;DHT22;21086;44.780;17.194;2023-06-22T09:32:00;32.90;99.90
34877;DHT22;21086;44.780;17.194;2023-06-22T09:34:28;33.10;99.90
34877;DHT22;21086;44.780;17.194;2023-06-22T09:36:55;33.20;99.90
34877;DHT22;21086;44.780;17.194;2023-06-22T09:39:24;33.40;99.90
34877;DHT22;21086;44.780;17.194;2023-06-22T09:41:51;33.40;99.90
34877;DHT22;21086;44.780;17.194;2023-06-22T09:44:18;33.50;99.90
34877;DHT22;21086;44.780;17.194;2023-06-22T09:46:45;33.60;99.90
34877;DHT22;21086;44.780;17.194;2023-06-22T09:49:12;33.60;99.90
34877;DHT22;21086;44.780;17.194;2023-06-22T09:51:39;33.60;99.90
34877;DHT22;21086;44.780;17.194;2023-06-22T09:54:06;33.70;99.90
34877;DHT22;21086;44.780;17.194;2023-06-22T09:56:33;33.70;99.90
34877;DHT22;21086;44.780;17.194;2023-06-22T09:59:00;33.70;99.90
34877;DHT22;21086;44.780;17.194;2023-06-22T10:01:44;33.70;99.90
34877;DHT22;21086;44.780;17.194;2023-06-22T10:04:11;33.80;99.90
34877;DHT22;21086;44.780;17.194;2023-06-22T10:06:38;33.80;99.90
34877;DHT22;21086;44.780;17.194;2023-06-22T10:09:07;34.00;99.90
34877;DHT22;21086;44.780;17.194;2023-06-22T10:11:35;34.10;99.90
34877;DHT22;21086;44.780;17.194;2023-06-22T10:14:03;34.10;99.90
34877;DHT22;21086;44.780;17.194;2023-06-22T10:16:31;34.10;99.90
34877;DHT22;21086;44.780;17.194;2023-06-22T10:18:58;34.10;99.90
34877;DHT22;21086;44.780;17.194;2023-06-22T10:21:26;34.20;99.90
34877;DHT22;21086;44.780;17.194;2023-06-22T10:23:55;34.30;99.90
34877;DHT22;21086;44.780;17.194;2023-06-22T10:26:22;34.40;99.90
34877;DHT22;21086;44.780;17.194;2023-06-22T10:28:50;34.50;99.90
34877;DHT22;21086;44.780;17.194;2023-06-22T10:31:33;34.60;99.90
34877;DHT22;21086;44.780;17.194;2023-06-22T10:34:00;34.60;99.90
34877;DHT22;21086;44.780;17.194;2023-06-22T10:36:27;34.60;99.90
34877;DHT22;21086;44.780;17.194;2023-06-22T10:38:54;34.50;99.90
34877;DHT22;21086;44.780;17.194;2023-06-22T10:41:22;34.60;99.90
34877;DHT22;21086;44.780;17.194;2023-06-22T10:43:49;34.60;99.90
34877;DHT22;21086;44.780;17.194;2023-06-22T10:46:16;34.60;99.90
34877;DHT22;21086;44.780;17.194;2023-06-22T10:48:43;34.60;99.90
34877;DHT22;21086;44.780;17.194;2023-06-22T10:51:10;34.70;99.90
34877;DHT22;21086;44.780;17.194;2023-06-22T10:53:37;35.00;99.90
34877;DHT22;21086;44.780;17.194;2023-06-22T10:56:04;35.10;99.90
34877;DHT22;21086;44.780;17.194;2023-06-22T10:58:31;35.20;99.90
34877;DHT22;21086;44.780;17.194;2023-06-22T11:00:58;35.20;99.90
34877;DHT22;21086;44.780;17.194;2023-06-22T11:03:25;35.20;99.90
34877;DHT22;21086;44.780;17.194;2023-06-22T11:05:53;35.20;99.90
34877;DHT22;21086;44.780;17.194;2023-06-22T11:08:19;35.20;99.90
34877;DHT22;21086;44.780;17.194;2023-06-22T11:10:47;35.30;99.90
34877;DHT22;21086;44.780;17.194;2023-06-22T11:13:14;35.40;99.90
34877;DHT22;21086;44.780;17.194;2023-06-22T11:15:41;35.40;99.90
34877;DHT22;21086;44.780;17.194;2023-06-22T11:18:08;35.50;99.90
34877;DHT22;21086;44.780;17.194;2023-06-22T11:20:35;35.50;99.90
34877;DHT22;21086;44.780;17.194;2023-06-22T11:23:05;35.50;99.90
34877;DHT22;21086;44.780;17.194;2023-06-22T11:25:33;35.60;99.90
34877;DHT22;21086;44.780;17.194;2023-06-22T11:28:05;35.50;99.90
34877;DHT22;21086;44.780;17.194;2023-06-22T11:30:32;35.50;99.90
34877;DHT22;21086;44.780;17.194;2023-06-22T11:32:59;35.50;99.90
34877;DHT22;21086;44.780;17.194;2023-06-22T11:35:26;35.70;99.90
34877;DHT22;21086;44.780;17.194;2023-06-22T11:37:53;35.50;99.90
34877;DHT22;21086;44.780;17.194;2023-06-22T11:40:20;35.60;99.90
34877;DHT22;21086;44.780;17.194;2023-06-22T11:42:47;35.80;99.90
34877;DHT22;21086;44.780;17.194;2023-06-22T11:45:15;36.00;99.90
34877;DHT22;21086;44.780;17.194;2023-06-22T11:47:43;35.90;99.90
34877;DHT22;21086;44.780;17.194;2023-06-22T11:50:10;36.00;99.90
34877;DHT22;21086;44.780;17.194;2023-06-22T11:52:37;36.20;99.90
34877;DHT22;21086;44.780;17.194;2023-06-22T11:55:05;36.10;99.90
34877;DHT22;21086;44.780;17.194;2023-06-22T11:57:35;36.20;99.90
34877;DHT22;21086;44.780;17.194;2023-06-22T12:00:03;36.30;99.90
34877;DHT22;21086;44.780;17.194;2023-06-22T12:02:41;36.50;99.90
34877;DHT22;21086;44.780;17.194;2023-06-22T12:05:08;36.70;99.90
34877;DHT22;21086;44.780;17.194;2023-06-22T12:07:35;36.80;99.90
34877;DHT22;21086;44.780;17.194;2023-06-22T12:10:02;36.70;99.90
34877;DHT22;21086;44.780;17.194;2023-06-22T12:12:29;36.70;99.90
34877;DHT22;21086;44.780;17.194;2023-06-22T12:14:57;36.80;99.90
34877;DHT22;21086;44.780;17.194;2023-06-22T12:17:24;36.90;99.90
34877;DHT22;21086;44.780;17.194;2023-06-22T12:19:51;37.10;99.90
34877;DHT22;21086;44.780;17.194;2023-06-22T12:22:18;37.30;99.90
34877;DHT22;21086;44.780;17.194;2023-06-22T12:24:45;37.50;99.90
34877;DHT22;21086;44.780;17.194;2023-06-22T12:27:13;37.60;99.90
34877;DHT22;21086;44.780;17.194;2023-06-22T12:29:43;37.60;99.90
34877;DHT22;21086;44.780;17.194;2023-06-22T12:32:09;37.50;99.90
34877;DHT22;21086;44.780;17.194;2023-06-22T12:34:41;37.70;99.90
34877;DHT22;21086;44.780;17.194;2023-06-22T12:37:08;37.80;99.90
34877;DHT22;21086;44.780;17.194;2023-06-22T12:39:36;38.00;99.90
34877;DHT22;21086;44.780;17.194;2023-06-22T12:42:03;38.10;99.90
34877;DHT22;21086;44.780;17.194;2023-06-22T12:44:31;37.60;99.90
34877;DHT22;21086;44.780;17.194;2023-06-22T12:46:57;37.70;99.90
34877;DHT22;21086;44.780;17.194;2023-06-22T12:49:24;37.90;99.90
34877;DHT22;21086;44.780;17.194;2023-06-22T12:51:51;38.20;99.90
34877;DHT22;21086;44.780;17.194;2023-06-22T12:54:18;38.50;99.90
34877;DHT22;21086;44.780;17.194;2023-06-22T12:56:47;38.70;99.90
34877;DHT22;21086;44.780;17.194;2023-06-22T12:59:14;39.10;99.90
34877;DHT22;21086;44.780;17.194;2023-06-22T13:01:41;39.30;99.90
34877;DHT22;21086;44.780;17.194;2023-06-22T13:04:10;39.50;99.90
34877;DHT22;21086;44.780;17.194;2023-06-22T13:06:41;39.30;99.90
34877;DHT22;21086;44.780;17.194;2023-06-22T13:09:09;39.60;99.90
34877;DHT22;21086;44.780;17.194;2023-06-22T13:11:46;40.10;99.90
34877;DHT22;21086;44.780;17.194;2023-06-22T13:14:14;40.40;99.90
34877;DHT22;21086;44.780;17.194;2023-06-22T13:16:42;41.00;99.90
34877;DHT22;21086;44.780;17.194;2023-06-22T13:19:10;41.60;99.90
34877;DHT22;21086;44.780;17.194;2023-06-22T13:21:36;42.60;99.90
34877;DHT22;21086;44.780;17.194;2023-06-22T13:24:04;43.70;99.90
34877;DHT22;21086;44.780;17.194;2023-06-22T13:26:33;44.40;99.90
34877;DHT22;21086;44.780;17.194;2023-06-22T13:29:00;45.20;99.90
34877;DHT22;21086;44.780;17.194;2023-06-22T13:31:28;45.40;99.90
34877;DHT22;21086;44.780;17.194;2023-06-22T13:33:55;45.60;99.90
34877;DHT22;21086;44.780;17.194;2023-06-22T13:36:22;45.80;99.90
34877;DHT22;21086;44.780;17.194;2023-06-22T13:38:50;46.60;99.90
34877;DHT22;21086;44.780;17.194;2023-06-22T13:41:17;47.30;99.90
34877;DHT22;21086;44.780;17.194;2023-06-22T13:43:44;47.90;99.90
34877;DHT22;21086;44.780;17.194;2023-06-22T13:46:10;48.70;99.90
34877;DHT22;21086;44.780;17.194;2023-06-22T13:48:38;49.90;99.90
34877;DHT22;21086;44.780;17.194;2023-06-22T13:51:05;50.80;99.90
34877;DHT22;21086;44.780;17.194;2023-06-22T13:53:32;51.40;99.90
34877;DHT22;21086;44.780;17.194;2023-06-22T13:55:59;51.70;99.90
34877;DHT22;21086;44.780;17.194;2023-06-22T13:58:26;51.00;99.90
34877;DHT22;21086;44.780;17.194;2023-06-22T14:00:54;50.70;99.90
34877;DHT22;21086;44.780;17.194;2023-06-22T14:03:22;51.30;99.90
34877;DHT22;21086;44.780;17.194;2023-06-22T14:05:49;52.10;99.90
34877;DHT22;21086;44.780;17.194;2023-06-22T14:08:16;52.60;99.90
34877;DHT22;21086;44.780;17.194;2023-06-22T14:11:03;53.20;99.90
34877;DHT22;21086;44.780;17.194;2023-06-22T14:13:31;53.90;99.90
34877;DHT22;21086;44.780;17.194;2023-06-22T14:15:58;54.80;99.90
34877;DHT22;21086;44.780;17.194;2023-06-22T14:18:25;55.70;99.90
34877;DHT22;21086;44.780;17.194;2023-06-22T14:20:52;56.00;99.90
34877;DHT22;21086;44.780;17.194;2023-06-22T14:23:21;56.20;99.90
34877;DHT22;21086;44.780;17.194;2023-06-22T14:25:49;56.00;99.90
34877;DHT22;21086;44.780;17.194;2023-06-22T14:28:16;56.30;99.90
34877;DHT22;21086;44.780;17.194;2023-06-22T14:30:44;55.40;99.90
34877;DHT22;21086;44.780;17.194;2023-06-22T14:33:11;55.30;99.90
34877;DHT22;21086;44.780;17.194;2023-06-22T14:35:38;55.60;99.90
34877;DHT22;21086;44.780;17.194;2023-06-22T14:38:06;55.80;99.90
34877;DHT22;21086;44.780;17.194;2023-06-22T14:40:33;56.50;99.90
34877;DHT22;21086;44.780;17.194;2023-06-22T14:43:19;57.00;99.90
34877;DHT22;21086;44.780;17.194;2023-06-22T14:45:46;57.10;99.90
34877;DHT22;21086;44.780;17.194;2023-06-22T14:48:13;57.30;99.90
34877;DHT22;21086;44.780;17.194;2023-06-22T14:50:40;57.70;99.90
34877;DHT22;21086;44.780;17.194;2023-06-22T14:53:07;56.80;99.90
34877;DHT22;21086;44.780;17.194;2023-06-22T14:55:34;56.10;99.90
34877;DHT22;21086;44.780;17.194;2023-06-22T14:58:01;55.70;99.90
34877;DHT22;21086;44.780;17.194;2023-06-22T15:00:28;55.90;99.90
34877;DHT22;21086;44.780;17.194;2023-06-22T15:02:56;56.00;99.90
34877;DHT22;21086;44.780;17.194;2023-06-22T15:05:23;56.20;99.90
34877;DHT22;21086;44.780;17.194;2023-06-22T15:07:51;56.50;99.90
34877;DHT22;21086;44.780;17.194;2023-06-22T15:10:18;56.70;99.90
34877;DHT22;21086;44.780;17.194;2023-06-22T15:12:45;56.70;99.90
34877;DHT22;21086;44.780;17.194;2023-06-22T15:15:12;56.10;99.90
34877;DHT22;21086;44.780;17.194;2023-06-22T15:17:39;55.50;99.90
34877;DHT22;21086;44.780;17.194;2023-06-22T15:20:10;55.90;99.90
34877;DHT22;21086;44.780;17.194;2023-06-22T15:22:37;56.00;99.90
34877;DHT22;21086;44.780;17.194;2023-06-22T15:25:05;55.00;99.90
34877;DHT22;21086;44.780;17.194;2023-06-22T15:27:32;54.20;99.90
34877;DHT22;21086;44.780;17.194;2023-06-22T15:30:03;54.80;99.90
34877;DHT22;21086;44.780;17.194;2023-06-22T15:32:31;54.90;99.90
34877;DHT22;21086;44.780;17.194;2023-06-22T15:35:28;54.90;99.90
34877;DHT22;21086;44.780;17.194;2023-06-22T15:37:55;54.40;99.90